createdAt,value
2022-09-28T00:01:23.798Z,9.38
2022-09-28T00:03:59.948Z,9.33
2022-09-28T00:06:30.474Z,9.30
2022-09-28T00:08:58.613Z,9.26
2022-09-28T00:11:28.333Z,9.23
2022-09-28T00:14:00.238Z,9.21
2022-09-28T00:16:33.162Z,9.20
2022-09-28T00:19:01.713Z,9.17
2022-09-28T00:21:34.698Z,9.13
2022-09-28T00:24:18.031Z,9.13
2022-09-28T00:26:52.188Z,9.13
2022-09-28T00:29:34.347Z,9.15
2022-09-28T00:32:13.496Z,9.19
2022-09-28T00:34:46.116Z,9.21
2022-09-28T00:37:15.361Z,9.23
2022-09-28T00:39:44.048Z,9.23
2022-09-28T00:42:17.632Z,9.24
2022-09-28T00:44:48.321Z,9.25
2022-09-28T00:47:34.773Z,9.26
2022-09-28T00:50:10.418Z,9.30
2022-09-28T00:52:54.900Z,9.31
2022-09-28T00:55:36.357Z,9.31
2022-09-28T00:58:09.107Z,9.30
2022-09-28T01:00:37.939Z,9.29
2022-09-28T01:03:05.866Z,9.27
2022-09-28T01:05:35.256Z,9.29
2022-09-28T01:08:05.547Z,9.29
2022-09-28T01:10:34.059Z,9.27
2022-09-28T01:13:01.958Z,9.24
2022-09-28T01:15:31.931Z,9.22
2022-09-28T01:18:32.331Z,9.22
2022-09-28T01:21:20.339Z,9.25
2022-09-28T01:24:04.313Z,9.25
2022-09-28T01:26:56.316Z,9.22
2022-09-28T01:29:26.950Z,9.18
2022-09-28T01:32:30.059Z,9.18
2022-09-28T01:37:47.904Z,9.14
2022-09-28T01:40:17.525Z,9.12
2022-09-28T01:42:53.280Z,9.08
2022-09-28T01:45:31.317Z,9.04
2022-09-28T01:48:04.925Z,9.03
2022-09-28T01:50:43.011Z,9.00
2022-09-28T01:53:16.918Z,8.97
2022-09-28T01:55:54.947Z,8.95
2022-09-28T01:58:46.101Z,8.93
2022-09-28T02:01:24.093Z,8.90
2022-09-28T02:04:08.334Z,8.84
2022-09-28T02:06:49.268Z,8.76
2022-09-28T02:09:33.046Z,8.70
2022-09-28T02:12:10.850Z,8.66
2022-09-28T02:14:44.169Z,8.60
2022-09-28T02:17:12.947Z,8.57
2022-09-28T02:19:41.505Z,8.54
2022-09-28T02:22:28.200Z,8.50
2022-09-28T02:24:58.109Z,8.48
2022-09-28T02:27:44.796Z,8.47
2022-09-28T02:30:13.200Z,8.43
2022-09-28T02:32:45.210Z,8.39
2022-09-28T02:35:17.063Z,8.31
2022-09-28T02:37:46.410Z,8.26
2022-09-28T02:40:20.815Z,8.22
2022-09-28T02:43:13.715Z,8.18
2022-09-28T02:45:56.683Z,8.11
2022-09-28T02:48:43.625Z,8.06
2022-09-28T02:51:54.378Z,8.02
2022-09-28T02:55:03.290Z,7.99
2022-09-28T02:57:33.884Z,7.89
2022-09-28T03:00:12.966Z,7.81
2022-09-28T03:03:12.916Z,7.73
2022-09-28T03:06:00.468Z,7.70
2022-09-28T03:08:38.378Z,7.67
2022-09-28T03:11:28.849Z,7.65
2022-09-28T03:13:57.794Z,7.61
2022-09-28T03:16:35.744Z,7.54
2022-09-28T03:19:03.965Z,7.50
2022-09-28T03:21:31.871Z,7.46
2022-09-28T03:23:59.786Z,7.39
2022-09-28T03:26:27.682Z,7.35
2022-09-28T03:28:55.587Z,7.32
2022-09-28T03:31:24.676Z,7.30
2022-09-28T03:33:53.026Z,7.27
2022-09-28T03:36:20.852Z,7.23
2022-09-28T03:38:48.901Z,7.23
2022-09-28T03:41:16.891Z,7.22
2022-09-28T03:43:45.152Z,7.22
2022-09-28T03:46:14.296Z,7.21
2022-09-28T03:48:46.329Z,7.18
2022-09-28T03:51:14.405Z,7.14
2022-09-28T03:53:42.367Z,7.08
2022-09-28T03:56:17.528Z,7.06
2022-09-28T03:58:45.502Z,7.03
2022-09-28T04:01:18.297Z,6.97
2022-09-28T04:03:54.685Z,6.82
2022-09-28T04:06:24.129Z,6.71
2022-09-28T04:08:52.674Z,6.64
2022-09-28T04:11:42.839Z,6.60
2022-09-28T04:14:17.570Z,6.65
2022-09-28T04:16:45.695Z,6.70
2022-09-28T04:19:24.337Z,6.75
2022-09-28T04:22:18.075Z,6.77
2022-09-28T04:24:46.569Z,6.76
2022-09-28T04:27:33.036Z,6.79
2022-09-28T04:30:01.954Z,6.85
2022-09-28T04:32:31.219Z,6.90
2022-09-28T04:34:59.141Z,6.96
2022-09-28T04:37:27.105Z,7.00
2022-09-28T04:39:54.995Z,7.03
2022-09-28T04:42:22.932Z,7.02
2022-09-28T04:44:51.641Z,7.02
2022-09-28T04:47:19.576Z,7.04
2022-09-28T04:49:50.042Z,7.06
2022-09-28T04:52:32.267Z,7.08
2022-09-28T04:55:00.170Z,7.08
2022-09-28T04:57:28.110Z,7.07
2022-09-28T04:59:55.929Z,7.06
2022-09-28T05:02:24.711Z,7.07
2022-09-28T05:05:12.741Z,7.08
2022-09-28T05:07:50.044Z,7.08
2022-09-28T05:10:19.999Z,7.08
2022-09-28T05:12:48.362Z,7.11
2022-09-28T05:15:17.784Z,7.19
2022-09-28T05:17:45.691Z,7.30
2022-09-28T05:20:22.979Z,7.41
2022-09-28T05:22:50.915Z,7.52
2022-09-28T05:25:19.685Z,7.57
2022-09-28T05:27:57.461Z,7.60
2022-09-28T05:30:47.744Z,7.59
2022-09-28T05:33:27.228Z,7.58
2022-09-28T05:36:11.279Z,7.62
2022-09-28T05:38:39.273Z,7.66
2022-09-28T05:41:07.277Z,7.67
2022-09-28T05:43:35.339Z,7.69
2022-09-28T05:46:06.583Z,7.69
2022-09-28T05:48:37.168Z,7.70
2022-09-28T05:51:05.262Z,7.69
2022-09-28T05:53:33.123Z,7.72
2022-09-28T05:56:01.410Z,7.72
2022-09-28T05:58:32.253Z,7.72
2022-09-28T06:01:00.706Z,7.73
2022-09-28T06:03:28.901Z,7.73
2022-09-28T06:05:56.879Z,7.78
2022-09-28T06:08:25.486Z,7.78
2022-09-28T06:11:07.609Z,7.78
2022-09-28T06:13:35.816Z,7.76
2022-09-28T06:16:05.059Z,7.80
2022-09-28T06:18:33.065Z,7.72
2022-09-28T06:21:17.739Z,7.87
2022-09-28T06:23:49.369Z,7.87
2022-09-28T06:26:19.093Z,7.88
2022-09-28T06:28:47.282Z,7.92
2022-09-28T06:31:15.982Z,8.00
2022-09-28T06:33:49.083Z,8.10
2022-09-28T06:36:19.837Z,8.16
2022-09-28T06:38:47.873Z,8.16
2022-09-28T06:41:20.155Z,8.26
2022-09-28T06:43:48.754Z,8.37
2022-09-28T06:46:35.795Z,8.45
2022-09-28T06:49:35.789Z,8.53
2022-09-28T06:52:50.220Z,8.55
2022-09-28T06:55:50.330Z,8.56
2022-09-28T06:58:21.038Z,8.60
2022-09-28T07:00:51.889Z,8.66
2022-09-28T07:03:22.658Z,8.72
2022-09-28T07:06:14.800Z,8.88
2022-09-28T07:09:04.798Z,8.98
2022-09-28T07:11:59.809Z,9.12
2022-09-28T07:14:48.077Z,9.27
2022-09-28T07:17:16.981Z,9.39
2022-09-28T07:19:44.907Z,9.43
2022-09-28T07:22:18.728Z,9.46
2022-09-28T07:24:48.938Z,9.48
2022-09-28T07:27:39.692Z,9.51
2022-09-28T07:30:40.683Z,9.59
2022-09-28T07:33:16.121Z,9.73
2022-09-28T07:35:58.242Z,9.87
2022-09-28T07:38:29.819Z,9.96
2022-09-28T07:41:11.751Z,10.12
2022-09-28T07:43:45.003Z,10.33
2022-09-28T07:46:21.379Z,10.46
2022-09-28T07:48:57.194Z,10.48
2022-09-28T07:54:31.821Z,10.59
2022-09-28T07:57:19.561Z,10.71
2022-09-28T07:59:55.165Z,10.84
2022-09-28T08:02:41.728Z,10.86
2022-09-28T08:05:10.163Z,10.86
2022-09-28T08:07:58.891Z,10.85
2022-09-28T08:10:51.069Z,10.80
2022-09-28T08:13:48.400Z,10.74
2022-09-28T08:16:56.704Z,10.81
2022-09-28T08:26:38.372Z,10.95
2022-09-28T08:29:32.949Z,10.95
2022-09-28T08:36:04.872Z,10.85
2022-09-28T08:38:51.393Z,10.76
2022-09-28T08:42:00.026Z,10.66
2022-09-28T08:44:57.978Z,10.63
2022-09-28T08:48:22.398Z,10.60
2022-09-28T08:51:24.378Z,10.65
2022-09-28T08:54:45.041Z,10.84
2022-09-28T08:58:25.362Z,10.94
2022-09-28T09:00:54.331Z,11.08
2022-09-28T09:03:45.468Z,11.09
2022-09-28T09:07:21.597Z,11.16
2022-09-28T09:10:12.377Z,11.21
2022-09-28T09:12:41.292Z,11.34
2022-09-28T09:15:34.081Z,11.55
2022-09-28T09:18:23.541Z,11.64
2022-09-28T09:21:20.131Z,11.69
2022-09-28T09:23:56.687Z,11.67
2022-09-28T09:26:39.279Z,11.64
2022-09-28T09:29:30.001Z,11.82
2022-09-28T09:32:12.105Z,12.10
2022-09-28T09:35:23.416Z,12.18
2022-09-28T09:38:40.360Z,12.24
2022-09-28T09:45:36.078Z,12.63
2022-09-28T09:48:43.381Z,12.74
2022-09-28T09:51:30.352Z,12.79
2022-09-28T09:54:37.847Z,12.74
2022-09-28T09:57:29.361Z,12.85
2022-09-28T10:00:17.573Z,12.82
2022-09-28T10:03:04.995Z,12.70
2022-09-28T10:05:48.186Z,12.72
2022-09-28T10:08:20.496Z,12.82
2022-09-28T10:10:53.196Z,12.95
2022-09-28T10:13:24.598Z,13.12
2022-09-28T10:15:55.652Z,13.26
2022-09-28T10:18:31.444Z,13.38
2022-09-28T10:21:21.772Z,13.30
2022-09-28T10:24:02.900Z,13.22
2022-09-28T10:26:41.753Z,13.15
2022-09-28T10:29:23.367Z,13.18
2022-09-28T10:31:58.381Z,13.34
2022-09-28T10:34:40.203Z,13.61
2022-09-28T10:37:14.891Z,13.88
2022-09-28T10:40:05.961Z,14.06
2022-09-28T10:42:36.315Z,13.99
2022-09-28T10:45:23.998Z,13.95
2022-09-28T10:47:52.282Z,13.98
2022-09-28T10:50:24.779Z,13.97
2022-09-28T10:53:22.715Z,14.13
2022-09-28T10:56:20.978Z,14.38
2022-09-28T10:58:52.242Z,14.34
2022-09-28T11:01:40.514Z,14.16
2022-09-28T11:04:28.175Z,14.18
2022-09-28T11:07:03.302Z,14.43
2022-09-28T11:09:35.092Z,14.82
2022-09-28T11:12:16.386Z,15.13
2022-09-28T11:14:44.919Z,15.27
2022-09-28T11:17:17.231Z,15.47
2022-09-28T11:19:45.977Z,15.63
2022-09-28T11:22:31.244Z,15.88
2022-09-28T11:25:17.495Z,16.12
2022-09-28T11:27:54.323Z,16.21
2022-09-28T11:30:29.564Z,16.27
2022-09-28T11:33:41.842Z,16.26
2022-09-28T11:37:02.613Z,16.44
2022-09-28T11:39:52.928Z,16.64
2022-09-28T11:42:41.044Z,16.73
2022-09-28T11:45:21.778Z,16.47
2022-09-28T11:47:52.919Z,16.42
2022-09-28T11:50:28.549Z,16.49
2022-09-28T11:53:04.687Z,16.74
2022-09-28T11:55:38.430Z,16.87
2022-09-28T11:58:14.821Z,17.04
2022-09-28T12:00:53.729Z,17.23
2022-09-28T12:03:44.727Z,17.44
2022-09-28T12:06:18.313Z,17.47
2022-09-28T12:08:54.233Z,17.21
2022-09-28T12:11:36.491Z,16.80
2022-09-28T12:14:45.713Z,16.19
2022-09-28T12:17:29.848Z,15.89
2022-09-28T12:20:16.941Z,15.78
2022-09-28T12:22:54.854Z,15.68
2022-09-28T12:25:24.666Z,15.62
2022-09-28T12:28:12.901Z,15.56
2022-09-28T12:30:43.941Z,15.60
2022-09-28T12:33:17.799Z,15.73
2022-09-28T12:35:56.129Z,15.90
2022-09-28T12:38:42.470Z,16.02
2022-09-28T12:41:22.664Z,16.12
2022-09-28T12:44:17.433Z,16.18
2022-09-28T12:47:00.835Z,16.21
2022-09-28T12:52:58.074Z,16.16
2022-09-28T12:55:44.050Z,15.98
2022-09-28T12:58:30.527Z,15.87
2022-09-28T13:01:04.231Z,15.75
2022-09-28T13:04:27.769Z,15.69
2022-09-28T13:07:41.116Z,15.57
2022-09-28T13:10:33.305Z,15.41
2022-09-28T13:13:22.799Z,15.30
2022-09-28T13:16:05.026Z,15.19
2022-09-28T13:19:16.113Z,15.12
2022-09-28T13:22:06.632Z,15.08
2022-09-28T13:24:43.988Z,15.01
2022-09-28T13:27:19.537Z,14.95
2022-09-28T13:29:50.412Z,14.93
2022-09-28T13:32:19.075Z,14.92
2022-09-28T13:34:50.600Z,14.91
2022-09-28T13:37:24.488Z,14.75
2022-09-28T13:39:53.627Z,14.88
2022-09-28T13:42:39.018Z,14.84
2022-09-28T13:45:24.934Z,14.80
2022-09-28T13:48:05.369Z,14.75
2022-09-28T13:50:47.220Z,14.73
2022-09-28T13:53:33.916Z,14.68
2022-09-28T13:56:26.471Z,14.61
2022-09-28T13:59:18.256Z,14.55
2022-09-28T14:02:07.079Z,14.50
2022-09-28T14:04:54.927Z,14.46
2022-09-28T14:07:35.081Z,14.41
2022-09-28T14:10:24.853Z,14.36
2022-09-28T14:12:55.059Z,14.30
2022-09-28T14:15:28.840Z,14.26
2022-09-28T14:18:33.672Z,14.21
2022-09-28T14:21:32.057Z,14.16
2022-09-28T14:24:34.361Z,14.11
2022-09-28T14:27:17.540Z,14.05
2022-09-28T14:29:55.604Z,14.01
2022-09-28T14:32:33.263Z,14.01
2022-09-28T14:35:05.028Z,14.00
2022-09-28T14:37:58.843Z,14.00
2022-09-28T14:41:12.678Z,13.99
2022-09-28T14:43:44.121Z,13.99
2022-09-28T14:46:12.039Z,13.97
2022-09-28T14:49:20.415Z,13.96
2022-09-28T14:51:48.281Z,13.96
2022-09-28T14:54:27.984Z,13.94
2022-09-28T14:57:15.436Z,13.93
2022-09-28T14:59:46.260Z,13.90
2022-09-28T15:02:25.140Z,13.87
2022-09-28T15:05:14.389Z,13.85
2022-09-28T15:07:52.295Z,13.78
2022-09-28T15:10:37.238Z,13.80
2022-09-28T15:13:16.713Z,13.78
2022-09-28T15:15:50.577Z,13.74
2022-09-28T15:18:18.555Z,13.71
2022-09-28T15:20:49.278Z,13.68
2022-09-28T15:23:33.032Z,13.63
2022-09-28T15:26:02.544Z,13.60
2022-09-28T15:28:34.322Z,13.56
2022-09-28T15:31:04.882Z,13.54
2022-09-28T15:33:53.611Z,13.52
2022-09-28T15:36:27.953Z,13.50
2022-09-28T15:39:01.848Z,13.48
2022-09-28T15:41:31.244Z,13.43
2022-09-28T15:44:12.747Z,13.42
2022-09-28T15:46:48.077Z,13.41
2022-09-28T15:49:44.091Z,13.39
2022-09-28T15:52:27.628Z,13.36
2022-09-28T15:54:55.970Z,13.34
2022-09-28T15:58:19.806Z,13.31
2022-09-28T16:00:49.953Z,13.27
2022-09-28T16:03:17.808Z,13.24
2022-09-28T16:06:07.048Z,13.21
2022-09-28T16:08:43.985Z,13.16
2022-09-28T16:11:17.888Z,13.13
2022-09-28T16:14:07.298Z,13.09
2022-09-28T16:16:53.350Z,13.10
2022-09-28T16:19:25.547Z,13.11
2022-09-28T16:21:56.536Z,13.12
2022-09-28T16:24:33.481Z,13.12
2022-09-28T16:27:41.114Z,13.10
2022-09-28T16:30:15.189Z,13.06
2022-09-28T16:32:49.749Z,13.02
2022-09-28T16:35:23.611Z,12.99
2022-09-28T16:38:14.874Z,12.94
2022-09-28T16:40:51.862Z,12.88
2022-09-28T16:43:29.106Z,12.84
2022-09-28T16:46:00.482Z,12.82
2022-09-28T16:48:33.931Z,12.81
2022-09-28T16:51:02.140Z,12.83
2022-09-28T16:53:49.304Z,12.87
2022-09-28T16:56:17.736Z,12.89
2022-09-28T16:58:48.156Z,12.90
2022-09-28T17:01:16.214Z,12.92
2022-09-28T17:03:47.082Z,12.91
2022-09-28T17:06:17.036Z,12.91
2022-09-28T17:08:45.173Z,12.91
2022-09-28T17:11:24.203Z,12.90
2022-09-28T17:13:56.826Z,12.89
2022-09-28T17:19:23.961Z,12.88
2022-09-28T17:21:52.765Z,12.90
2022-09-28T17:24:20.937Z,12.92
2022-09-28T17:26:51.154Z,12.93
2022-09-28T17:29:19.676Z,12.92
2022-09-28T17:31:47.702Z,12.91
2022-09-28T17:34:16.761Z,12.90
2022-09-28T17:36:45.240Z,12.87
2022-09-28T17:39:15.658Z,12.84
2022-09-28T17:41:43.659Z,12.82
2022-09-28T17:44:15.446Z,12.81
2022-09-28T17:46:49.220Z,12.82
2022-09-28T17:49:18.372Z,12.84
2022-09-28T17:51:46.379Z,12.85
2022-09-28T17:54:16.934Z,12.83
2022-09-28T17:56:45.586Z,12.82
2022-09-28T17:59:16.461Z,12.78
2022-09-28T18:01:44.533Z,12.74
2022-09-28T18:04:33.426Z,12.71
2022-09-28T18:07:01.754Z,12.67
2022-09-28T18:09:29.782Z,12.66
2022-09-28T18:12:04.219Z,12.67
2022-09-28T18:14:32.401Z,12.66
2022-09-28T18:17:00.340Z,12.64
2022-09-28T18:19:31.894Z,12.62
2022-09-28T18:22:01.495Z,12.58
2022-09-28T18:24:32.646Z,12.55
2022-09-28T18:27:00.822Z,12.50
2022-09-28T18:29:33.427Z,12.44
2022-09-28T18:32:02.629Z,12.40
2022-09-28T18:34:30.688Z,12.40
2022-09-28T18:36:59.288Z,12.40
2022-09-28T18:39:27.605Z,12.37
2022-09-28T18:41:55.764Z,12.33
2022-09-28T18:44:24.171Z,12.29
2022-09-28T18:46:52.335Z,12.22
2022-09-28T18:49:21.620Z,12.19
2022-09-28T18:51:50.113Z,12.19
2022-09-28T18:54:18.300Z,12.20
2022-09-28T18:56:46.243Z,12.20
2022-09-28T18:59:15.423Z,12.17
2022-09-28T19:01:43.621Z,12.16
2022-09-28T19:04:12.980Z,12.16
2022-09-28T19:06:43.144Z,12.16
2022-09-28T19:09:13.211Z,12.16
2022-09-28T19:11:41.615Z,12.15
2022-09-28T19:14:11.529Z,12.12
2022-09-28T19:16:39.482Z,12.10
2022-09-28T19:19:07.658Z,12.06
2022-09-28T19:21:35.669Z,11.96
2022-09-28T19:24:04.277Z,11.90
2022-09-28T19:26:33.052Z,11.91
2022-09-28T19:29:03.018Z,11.94
2022-09-28T19:31:32.853Z,11.97
2022-09-28T19:34:00.700Z,11.97
2022-09-28T19:36:28.791Z,11.98
2022-09-28T19:38:58.276Z,11.96
2022-09-28T19:41:44.928Z,11.87
2022-09-28T19:44:25.098Z,11.65
2022-09-28T19:47:04.230Z,11.53
2022-09-28T19:49:36.985Z,11.46
2022-09-28T19:52:18.074Z,11.43
2022-09-28T19:54:56.660Z,11.47
2022-09-28T19:57:27.812Z,11.52
2022-09-28T20:00:05.668Z,11.54
2022-09-28T20:02:35.260Z,11.53
2022-09-28T20:05:03.406Z,11.52
2022-09-28T20:07:33.409Z,11.51
2022-09-28T20:10:01.319Z,11.51
2022-09-28T20:12:29.349Z,11.53
2022-09-28T20:14:57.913Z,11.54
2022-09-28T20:17:31.809Z,11.54
2022-09-28T20:19:59.721Z,11.50
2022-09-28T20:22:27.803Z,11.46
2022-09-28T20:24:55.737Z,11.45
2022-09-28T20:27:26.708Z,11.44
2022-09-28T20:29:54.981Z,11.47
2022-09-28T20:32:22.910Z,11.49
2022-09-28T20:34:50.953Z,11.47
2022-09-28T20:37:19.468Z,11.44
2022-09-28T20:39:47.485Z,11.39
2022-09-28T20:42:15.627Z,11.38
2022-09-28T20:44:44.066Z,11.40
2022-09-28T20:47:11.979Z,11.41
2022-09-28T20:49:39.972Z,11.40
2022-09-28T20:52:07.820Z,11.35
2022-09-28T20:54:35.744Z,11.32
2022-09-28T20:57:17.465Z,11.31
2022-09-28T20:59:54.312Z,11.33
2022-09-28T21:02:22.984Z,11.39
2022-09-28T21:04:51.009Z,11.41
2022-09-28T21:07:20.366Z,11.41
2022-09-28T21:09:48.553Z,11.40
2022-09-28T21:12:17.130Z,11.38
2022-09-28T21:14:44.961Z,11.39
2022-09-28T21:17:12.896Z,11.39
2022-09-28T21:19:41.014Z,11.35
2022-09-28T21:22:08.962Z,11.34
2022-09-28T21:24:37.238Z,11.34
2022-09-28T21:27:07.741Z,11.33
2022-09-28T21:29:35.563Z,11.30
2022-09-28T21:32:03.469Z,11.29
2022-09-28T21:34:32.449Z,11.28
2022-09-28T21:37:00.434Z,11.23
2022-09-28T21:39:28.375Z,11.18
2022-09-28T21:41:56.205Z,11.14
2022-09-28T21:44:24.130Z,11.07
2022-09-28T21:46:52.002Z,11.02
2022-09-28T21:49:20.038Z,10.99
2022-09-28T21:51:47.933Z,11.03
2022-09-28T21:54:15.941Z,11.05
2022-09-28T21:56:44.032Z,11.05
2022-09-28T21:59:11.908Z,11.05
2022-09-28T22:01:41.955Z,11.10
2022-09-28T22:04:10.640Z,11.09
2022-09-28T22:06:39.099Z,11.09
2022-09-28T22:09:08.173Z,11.06
2022-09-28T22:11:37.010Z,11.03
2022-09-28T22:14:05.004Z,11.00
2022-09-28T22:16:32.962Z,10.96
2022-09-28T22:19:01.203Z,11.02
2022-09-28T22:21:32.751Z,11.05
2022-09-28T22:24:02.850Z,10.99
2022-09-28T22:26:33.772Z,10.99
2022-09-28T22:29:05.112Z,10.97
2022-09-28T22:31:35.493Z,10.94
2022-09-28T22:34:04.074Z,10.91
2022-09-28T22:36:33.348Z,10.84
2022-09-28T22:39:01.358Z,10.81
2022-09-28T22:41:30.062Z,10.78
2022-09-28T22:43:59.202Z,10.78
2022-09-28T22:46:29.445Z,10.77
2022-09-28T22:48:59.268Z,10.74
2022-09-28T22:51:29.887Z,10.71
2022-09-28T22:53:58.167Z,10.67
2022-09-28T22:56:26.321Z,10.65
2022-09-28T22:58:54.269Z,10.64
2022-09-28T23:01:25.160Z,10.62
2022-09-28T23:03:54.394Z,10.61
2022-09-28T23:06:26.143Z,10.59
2022-09-28T23:08:54.260Z,10.59
2022-09-28T23:11:22.297Z,10.59
2022-09-28T23:13:51.575Z,10.56
2022-09-28T23:16:20.499Z,10.55
2022-09-28T23:18:49.334Z,10.54
2022-09-28T23:21:19.897Z,10.53
2022-09-28T23:23:53.345Z,10.53
2022-09-28T23:26:27.455Z,10.50
2022-09-28T23:28:56.215Z,10.46
2022-09-28T23:31:28.069Z,10.44
2022-09-28T23:34:01.499Z,10.42
2022-09-28T23:36:29.884Z,10.39
2022-09-28T23:38:58.254Z,10.37
2022-09-28T23:41:26.446Z,10.33
2022-09-28T23:43:57.413Z,10.30
2022-09-28T23:46:25.737Z,10.28
2022-09-28T23:48:53.776Z,10.28
2022-09-28T23:51:21.693Z,10.30
2022-09-28T23:53:49.672Z,10.31
2022-09-28T23:56:17.765Z,10.32
2022-09-28T23:58:45.750Z,10.35
